sensor_id;sensor_type;location;lat;lon;timestamp;temperature;humidity
41876;DHT22;27555;50.808;4.402;2022-12-17T00:00:21;-0.60;99.90
41876;DHT22;27555;50.808;4.402;2022-12-17T00:03:05;-0.60;99.90
41876;DHT22;27555;50.808;4.402;2022-12-17T00:05:51;-0.50;99.90
41876;DHT22;27555;50.808;4.402;2022-12-17T00:08:35;-0.60;99.90
41876;DHT22;27555;50.808;4.402;2022-12-17T00:11:39;-0.60;99.90
41876;DHT22;27555;50.808;4.402;2022-12-17T00:14:23;-0.60;99.90
41876;DHT22;27555;50.808;4.402;2022-12-17T00:17:07;-0.70;99.90
41876;DHT22;27555;50.808;4.402;2022-12-17T00:19:51;-0.70;99.90
41876;DHT22;27555;50.808;4.402;2022-12-17T00:22:35;-0.70;99.90
41876;DHT22;27555;50.808;4.402;2022-12-17T00:25:19;-0.70;99.90
41876;DHT22;27555;50.808;4.402;2022-12-17T00:28:11;-0.70;99.90
41876;DHT22;27555;50.808;4.402;2022-12-17T00:30:56;-0.70;99.90
41876;DHT22;27555;50.808;4.402;2022-12-17T00:33:40;-0.70;99.90
41876;DHT22;27555;50.808;4.402;2022-12-17T00:36:25;-0.70;99.90
41876;DHT22;27555;50.808;4.402;2022-12-17T00:39:09;-0.70;99.90
41876;DHT22;27555;50.808;4.402;2022-12-17T00:41:53;-0.70;99.90
41876;DHT22;27555;50.808;4.402;2022-12-17T00:44:37;-0.70;99.90
41876;DHT22;27555;50.808;4.402;2022-12-17T00:47:22;-0.80;99.90
41876;DHT22;27555;50.808;4.402;2022-12-17T00:50:06;-0.80;99.90
41876;DHT22;27555;50.808;4.402;2022-12-17T00:52:52;-0.90;99.90
41876;DHT22;27555;50.808;4.402;2022-12-17T00:55:36;-0.90;99.90
41876;DHT22;27555;50.808;4.402;2022-12-17T00:58:21;-0.90;99.90
41876;DHT22;27555;50.808;4.402;2022-12-17T01:01:05;-0.90;99.90
41876;DHT22;27555;50.808;4.402;2022-12-17T01:03:49;-0.70;99.90
41876;DHT22;27555;50.808;4.402;2022-12-17T01:06:33;-0.80;99.90
41876;DHT22;27555;50.808;4.402;2022-12-17T01:09:18;-1.00;99.90
41876;DHT22;27555;50.808;4.402;2022-12-17T01:12:02;-0.80;99.90
41876;DHT22;27555;50.808;4.402;2022-12-17T01:14:46;-0.80;99.90
41876;DHT22;27555;50.808;4.402;2022-12-17T01:17:30;-0.90;99.90
41876;DHT22;27555;50.808;4.402;2022-12-17T01:20:14;-0.60;99.90
41876;DHT22;27555;50.808;4.402;2022-12-17T01:22:58;-1.00;99.90
41876;DHT22;27555;50.808;4.402;2022-12-17T01:25:42;-1.00;99.90
41876;DHT22;27555;50.808;4.402;2022-12-17T01:28:39;-1.00;99.90
41876;DHT22;27555;50.808;4.402;2022-12-17T01:31:23;-1.00;99.90
41876;DHT22;27555;50.808;4.402;2022-12-17T01:34:07;-1.00;99.90
41876;DHT22;27555;50.808;4.402;2022-12-17T01:36:52;-1.10;99.90
41876;DHT22;27555;50.808;4.402;2022-12-17T01:39:35;-1.10;99.90
41876;DHT22;27555;50.808;4.402;2022-12-17T01:42:20;-1.10;99.90
41876;DHT22;27555;50.808;4.402;2022-12-17T01:45:14;-1.00;99.90
41876;DHT22;27555;50.808;4.402;2022-12-17T01:48:02;-1.10;99.90
41876;DHT22;27555;50.808;4.402;2022-12-17T01:50:50;-1.20;99.90
41876;DHT22;27555;50.808;4.402;2022-12-17T01:53:39;-1.20;99.90
41876;DHT22;27555;50.808;4.402;2022-12-17T01:56:24;-1.20;99.90
41876;DHT22;27555;50.808;4.402;2022-12-17T01:59:09;-1.20;99.90
41876;DHT22;27555;50.808;4.402;2022-12-17T02:01:55;-1.30;99.90
41876;DHT22;27555;50.808;4.402;2022-12-17T02:04:39;-1.20;99.90
41876;DHT22;27555;50.808;4.402;2022-12-17T02:07:48;-1.20;99.90
41876;DHT22;27555;50.808;4.402;2022-12-17T02:10:52;-1.30;99.90
41876;DHT22;27555;50.808;4.402;2022-12-17T02:13:43;-1.30;99.90
41876;DHT22;27555;50.808;4.402;2022-12-17T02:16:34;-1.30;99.90
41876;DHT22;27555;50.808;4.402;2022-12-17T02:22:55;-1.40;99.90
41876;DHT22;27555;50.808;4.402;2022-12-17T02:25:52;-1.30;99.90
41876;DHT22;27555;50.808;4.402;2022-12-17T02:28:40;-1.40;99.90
41876;DHT22;27555;50.808;4.402;2022-12-17T02:31:28;-1.40;99.90
41876;DHT22;27555;50.808;4.402;2022-12-17T02:34:12;-1.40;99.90
41876;DHT22;27555;50.808;4.402;2022-12-17T02:36:56;-1.40;99.90
41876;DHT22;27555;50.808;4.402;2022-12-17T02:39:40;-1.40;99.90
41876;DHT22;27555;50.808;4.402;2022-12-17T02:42:25;-1.50;99.90
41876;DHT22;27555;50.808;4.402;2022-12-17T02:45:10;-1.50;99.90
41876;DHT22;27555;50.808;4.402;2022-12-17T02:47:55;-1.50;99.90
41876;DHT22;27555;50.808;4.402;2022-12-17T02:50:39;-1.50;99.90
41876;DHT22;27555;50.808;4.402;2022-12-17T02:53:24;-1.40;99.90
41876;DHT22;27555;50.808;4.402;2022-12-17T02:56:08;-1.40;99.90
41876;DHT22;27555;50.808;4.402;2022-12-17T02:58:52;-1.40;99.90
41876;DHT22;27555;50.808;4.402;2022-12-17T03:01:37;-1.50;99.90
41876;DHT22;27555;50.808;4.402;2022-12-17T03:04:22;-1.50;99.90
41876;DHT22;27555;50.808;4.402;2022-12-17T03:07:06;-1.50;99.90
41876;DHT22;27555;50.808;4.402;2022-12-17T03:09:50;-1.60;99.90
41876;DHT22;27555;50.808;4.402;2022-12-17T03:12:34;-1.60;99.90
41876;DHT22;27555;50.808;4.402;2022-12-17T03:15:18;-1.70;99.90
41876;DHT22;27555;50.808;4.402;2022-12-17T03:18:02;-1.60;99.90
41876;DHT22;27555;50.808;4.402;2022-12-17T03:20:46;-1.50;99.90
41876;DHT22;27555;50.808;4.402;2022-12-17T03:23:30;-1.50;99.90
41876;DHT22;27555;50.808;4.402;2022-12-17T03:26:14;-1.50;99.90
41876;DHT22;27555;50.808;4.402;2022-12-17T03:28:59;-1.60;99.90
41876;DHT22;27555;50.808;4.402;2022-12-17T03:31:47;-1.70;99.90
41876;DHT22;27555;50.808;4.402;2022-12-17T03:34:31;-1.70;99.90
41876;DHT22;27555;50.808;4.402;2022-12-17T03:37:15;-1.70;99.90
41876;DHT22;27555;50.808;4.402;2022-12-17T03:39:59;-1.70;99.90
41876;DHT22;27555;50.808;4.402;2022-12-17T03:42:43;-1.80;99.90
41876;DHT22;27555;50.808;4.402;2022-12-17T03:45:27;-1.80;99.90
41876;DHT22;27555;50.808;4.402;2022-12-17T03:48:12;-1.70;99.90
41876;DHT22;27555;50.808;4.402;2022-12-17T03:50:58;-1.70;99.90
41876;DHT22;27555;50.808;4.402;2022-12-17T03:53:42;-1.60;99.90
41876;DHT22;27555;50.808;4.402;2022-12-17T03:56:27;-1.60;99.90
41876;DHT22;27555;50.808;4.402;2022-12-17T03:59:11;-1.70;99.90
41876;DHT22;27555;50.808;4.402;2022-12-17T04:01:56;-1.80;99.90
41876;DHT22;27555;50.808;4.402;2022-12-17T04:04:40;-1.80;99.90
41876;DHT22;27555;50.808;4.402;2022-12-17T04:07:25;-1.80;99.90
41876;DHT22;27555;50.808;4.402;2022-12-17T04:10:10;-1.80;99.90
41876;DHT22;27555;50.808;4.402;2022-12-17T04:12:54;-1.90;99.90
41876;DHT22;27555;50.808;4.402;2022-12-17T04:15:46;-1.80;99.90
41876;DHT22;27555;50.808;4.402;2022-12-17T04:18:30;-1.80;99.90
41876;DHT22;27555;50.808;4.402;2022-12-17T04:21:14;-1.70;99.90
41876;DHT22;27555;50.808;4.402;2022-12-17T04:23:58;-1.70;99.90
41876;DHT22;27555;50.808;4.402;2022-12-17T04:26:42;-1.80;99.90
41876;DHT22;27555;50.808;4.402;2022-12-17T04:29:26;-1.90;99.90
41876;DHT22;27555;50.808;4.402;2022-12-17T04:32:10;-1.90;99.90
41876;DHT22;27555;50.808;4.402;2022-12-17T04:34:54;-1.90;99.90
41876;DHT22;27555;50.808;4.402;2022-12-17T04:37:38;-1.80;99.90
41876;DHT22;27555;50.808;4.402;2022-12-17T04:40:22;-1.80;99.90
41876;DHT22;27555;50.808;4.402;2022-12-17T04:43:08;-1.90;99.90
41876;DHT22;27555;50.808;4.402;2022-12-17T04:45:53;-2.00;99.90
41876;DHT22;27555;50.808;4.402;2022-12-17T04:48:37;-2.00;99.90
41876;DHT22;27555;50.808;4.402;2022-12-17T04:51:21;-2.00;99.90
41876;DHT22;27555;50.808;4.402;2022-12-17T04:54:05;-1.90;99.90
41876;DHT22;27555;50.808;4.402;2022-12-17T04:56:49;-1.90;99.90
41876;DHT22;27555;50.808;4.402;2022-12-17T04:59:33;-1.90;99.90
41876;DHT22;27555;50.808;4.402;2022-12-17T05:02:17;-2.00;99.90
41876;DHT22;27555;50.808;4.402;2022-12-17T05:05:01;-2.10;99.90
41876;DHT22;27555;50.808;4.402;2022-12-17T05:07:45;-2.20;99.90
41876;DHT22;27555;50.808;4.402;2022-12-17T05:10:29;-2.20;99.90
41876;DHT22;27555;50.808;4.402;2022-12-17T05:13:13;-2.10;99.90
41876;DHT22;27555;50.808;4.402;2022-12-17T05:15:57;-2.10;99.90
41876;DHT22;27555;50.808;4.402;2022-12-17T05:18:41;-2.00;99.90
41876;DHT22;27555;50.808;4.402;2022-12-17T05:21:25;-1.90;99.90
41876;DHT22;27555;50.808;4.402;2022-12-17T05:24:09;-2.00;99.90
41876;DHT22;27555;50.808;4.402;2022-12-17T05:26:54;-2.10;99.90
41876;DHT22;27555;50.808;4.402;2022-12-17T05:29:38;-2.10;99.90
41876;DHT22;27555;50.808;4.402;2022-12-17T05:32:22;-2.10;99.90
41876;DHT22;27555;50.808;4.402;2022-12-17T05:35:06;-2.10;99.90
41876;DHT22;27555;50.808;4.402;2022-12-17T05:37:51;-2.10;99.90
41876;DHT22;27555;50.808;4.402;2022-12-17T05:40:35;-2.20;99.90
41876;DHT22;27555;50.808;4.402;2022-12-17T05:43:19;-2.20;99.90
41876;DHT22;27555;50.808;4.402;2022-12-17T05:46:03;-2.30;99.90
41876;DHT22;27555;50.808;4.402;2022-12-17T05:48:47;-2.10;99.90
41876;DHT22;27555;50.808;4.402;2022-12-17T05:51:31;-2.10;99.90
41876;DHT22;27555;50.808;4.402;2022-12-17T05:54:15;-2.20;99.90
41876;DHT22;27555;50.808;4.402;2022-12-17T05:56:59;-2.30;99.90
41876;DHT22;27555;50.808;4.402;2022-12-17T05:59:44;-2.20;99.90
41876;DHT22;27555;50.808;4.402;2022-12-17T06:02:28;-2.10;99.90
41876;DHT22;27555;50.808;4.402;2022-12-17T06:05:12;-2.20;99.90
41876;DHT22;27555;50.808;4.402;2022-12-17T06:08:10;-2.30;99.90
41876;DHT22;27555;50.808;4.402;2022-12-17T06:10:58;-2.30;99.90
41876;DHT22;27555;50.808;4.402;2022-12-17T06:13:42;-2.30;99.90
41876;DHT22;27555;50.808;4.402;2022-12-17T06:16:26;-2.20;99.90
41876;DHT22;27555;50.808;4.402;2022-12-17T06:19:10;-2.20;99.90
41876;DHT22;27555;50.808;4.402;2022-12-17T06:21:54;-2.30;99.90
41876;DHT22;27555;50.808;4.402;2022-12-17T06:24:38;-2.30;99.90
41876;DHT22;27555;50.808;4.402;2022-12-17T06:27:22;-2.30;99.90
41876;DHT22;27555;50.808;4.402;2022-12-17T06:30:11;-2.30;99.90
41876;DHT22;27555;50.808;4.402;2022-12-17T06:33:03;-2.30;99.90
41876;DHT22;27555;50.808;4.402;2022-12-17T06:35:47;-2.10;99.90
41876;DHT22;27555;50.808;4.402;2022-12-17T06:38:31;-2.20;99.90
41876;DHT22;27555;50.808;4.402;2022-12-17T06:41:15;-2.30;99.90
41876;DHT22;27555;50.808;4.402;2022-12-17T06:43:59;-2.40;99.90
41876;DHT22;27555;50.808;4.402;2022-12-17T06:46:43;-2.40;99.90
41876;DHT22;27555;50.808;4.402;2022-12-17T06:49:27;-2.50;99.90
41876;DHT22;27555;50.808;4.402;2022-12-17T06:52:11;-2.40;99.90
41876;DHT22;27555;50.808;4.402;2022-12-17T06:54:55;-2.30;99.90
41876;DHT22;27555;50.808;4.402;2022-12-17T06:57:39;-2.30;99.90
41876;DHT22;27555;50.808;4.402;2022-12-17T07:00:24;-2.40;99.90
41876;DHT22;27555;50.808;4.402;2022-12-17T07:03:10;-2.40;99.90
41876;DHT22;27555;50.808;4.402;2022-12-17T07:05:54;-2.40;99.90
41876;DHT22;27555;50.808;4.402;2022-12-17T07:08:39;-2.40;99.90
41876;DHT22;27555;50.808;4.402;2022-12-17T07:11:22;-2.40;99.90
41876;DHT22;27555;50.808;4.402;2022-12-17T07:14:07;-2.50;99.90
41876;DHT22;27555;50.808;4.402;2022-12-17T07:16:51;-2.50;99.90
41876;DHT22;27555;50.808;4.402;2022-12-17T07:19:35;-2.50;99.90
41876;DHT22;27555;50.808;4.402;2022-12-17T07:22:19;-2.50;99.90
41876;DHT22;27555;50.808;4.402;2022-12-17T07:25:03;-2.50;99.90
41876;DHT22;27555;50.808;4.402;2022-12-17T07:27:54;-2.50;99.90
41876;DHT22;27555;50.808;4.402;2022-12-17T07:30:39;-2.60;99.90
41876;DHT22;27555;50.808;4.402;2022-12-17T07:33:23;-2.60;99.90
41876;DHT22;27555;50.808;4.402;2022-12-17T07:36:07;-2.60;99.90
41876;DHT22;27555;50.808;4.402;2022-12-17T07:38:51;-2.50;99.90
41876;DHT22;27555;50.808;4.402;2022-12-17T07:41:36;-2.30;99.90
41876;DHT22;27555;50.808;4.402;2022-12-17T07:44:20;-2.30;99.90
41876;DHT22;27555;50.808;4.402;2022-12-17T07:47:04;-2.40;99.90
41876;DHT22;27555;50.808;4.402;2022-12-17T07:49:48;-2.40;99.90
41876;DHT22;27555;50.808;4.402;2022-12-17T07:52:32;-2.30;99.90
41876;DHT22;27555;50.808;4.402;2022-12-17T07:55:16;-2.30;99.90
41876;DHT22;27555;50.808;4.402;2022-12-17T07:58:05;-2.40;99.90
41876;DHT22;27555;50.808;4.402;2022-12-17T08:00:49;-2.40;99.90
41876;DHT22;27555;50.808;4.402;2022-12-17T08:03:33;-2.30;99.90
41876;DHT22;27555;50.808;4.402;2022-12-17T08:06:17;-2.20;99.90
41876;DHT22;27555;50.808;4.402;2022-12-17T08:09:01;-2.10;99.90
41876;DHT22;27555;50.808;4.402;2022-12-17T08:11:45;-2.00;99.90
41876;DHT22;27555;50.808;4.402;2022-12-17T08:14:29;-2.00;99.90
41876;DHT22;27555;50.808;4.402;2022-12-17T08:17:13;-2.00;99.90
41876;DHT22;27555;50.808;4.402;2022-12-17T08:19:57;-2.00;99.90
41876;DHT22;27555;50.808;4.402;2022-12-17T08:22:41;-2.00;99.90
41876;DHT22;27555;50.808;4.402;2022-12-17T08:25:25;-1.90;99.90
41876;DHT22;27555;50.808;4.402;2022-12-17T08:28:09;-1.80;99.90
41876;DHT22;27555;50.808;4.402;2022-12-17T08:30:54;-1.70;99.90
41876;DHT22;27555;50.808;4.402;2022-12-17T08:33:38;-1.70;99.90
41876;DHT22;27555;50.808;4.402;2022-12-17T08:36:22;-1.70;99.90
41876;DHT22;27555;50.808;4.402;2022-12-17T08:39:06;-1.60;99.90
41876;DHT22;27555;50.808;4.402;2022-12-17T08:41:50;-1.60;99.90
41876;DHT22;27555;50.808;4.402;2022-12-17T08:44:33;-1.50;99.90
41876;DHT22;27555;50.808;4.402;2022-12-17T08:47:17;-1.40;99.90
41876;DHT22;27555;50.808;4.402;2022-12-17T08:50:03;-1.40;99.90
41876;DHT22;27555;50.808;4.402;2022-12-17T08:52:48;-1.50;99.90
41876;DHT22;27555;50.808;4.402;2022-12-17T08:55:32;-1.40;99.90
41876;DHT22;27555;50.808;4.402;2022-12-17T08:58:16;-1.40;99.90
41876;DHT22;27555;50.808;4.402;2022-12-17T09:01:02;-1.40;99.90
41876;DHT22;27555;50.808;4.402;2022-12-17T09:03:46;-1.40;99.90
41876;DHT22;27555;50.808;4.402;2022-12-17T09:06:30;-1.40;99.90
41876;DHT22;27555;50.808;4.402;2022-12-17T09:09:15;-1.20;99.90
41876;DHT22;27555;50.808;4.402;2022-12-17T09:11:59;-1.20;99.90
41876;DHT22;27555;50.808;4.402;2022-12-17T09:14:43;-1.20;99.90
41876;DHT22;27555;50.808;4.402;2022-12-17T09:17:27;-0.80;99.90
41876;DHT22;27555;50.808;4.402;2022-12-17T09:20:11;-0.60;99.90
41876;DHT22;27555;50.808;4.402;2022-12-17T09:22:55;0.10;99.90
41876;DHT22;27555;50.808;4.402;2022-12-17T09:25:39;0.90;99.90
41876;DHT22;27555;50.808;4.402;2022-12-17T09:28:23;1.80;99.80
41876;DHT22;27555;50.808;4.402;2022-12-17T09:31:07;1.70;99.20
41876;DHT22;27555;50.808;4.402;2022-12-17T09:33:51;1.20;98.80
41876;DHT22;27555;50.808;4.402;2022-12-17T09:36:36;0.80;99.10
41876;DHT22;27555;50.808;4.402;2022-12-17T09:39:20;0.50;99.50
41876;DHT22;27555;50.808;4.402;2022-12-17T09:45:45;0.20;99.80
41876;DHT22;27555;50.808;4.402;2022-12-17T09:48:46;0.10;99.90
41876;DHT22;27555;50.808;4.402;2022-12-17T09:51:34;0.00;99.90
41876;DHT22;27555;50.808;4.402;2022-12-17T09:54:36;-0.10;99.90
41876;DHT22;27555;50.808;4.402;2022-12-17T09:57:22;-0.10;99.90
41876;DHT22;27555;50.808;4.402;2022-12-17T10:00:27;-0.10;99.90
41876;DHT22;27555;50.808;4.402;2022-12-17T10:03:17;-0.30;99.90
41876;DHT22;27555;50.808;4.402;2022-12-17T10:06:26;-0.30;99.90
41876;DHT22;27555;50.808;4.402;2022-12-17T10:09:17;-0.20;99.90
41876;DHT22;27555;50.808;4.402;2022-12-17T10:12:16;-0.20;99.90
41876;DHT22;27555;50.808;4.402;2022-12-17T10:15:01;0.10;99.90
41876;DHT22;27555;50.808;4.402;2022-12-17T10:17:45;0.10;99.90
41876;DHT22;27555;50.808;4.402;2022-12-17T10:20:49;0.30;99.90
41876;DHT22;27555;50.808;4.402;2022-12-17T10:23:35;0.40;99.90
41876;DHT22;27555;50.808;4.402;2022-12-17T10:26:30;0.60;99.90
41876;DHT22;27555;50.808;4.402;2022-12-17T10:29:18;0.60;99.90
41876;DHT22;27555;50.808;4.402;2022-12-17T10:34:59;0.20;99.90
41876;DHT22;27555;50.808;4.402;2022-12-17T10:37:44;0.30;99.90
41876;DHT22;27555;50.808;4.402;2022-12-17T10:40:31;0.10;99.90
41876;DHT22;27555;50.808;4.402;2022-12-17T10:43:30;0.00;99.90
41876;DHT22;27555;50.808;4.402;2022-12-17T10:49:14;0.50;99.90
41876;DHT22;27555;50.808;4.402;2022-12-17T10:52:28;0.70;99.90
41876;DHT22;27555;50.808;4.402;2022-12-17T10:55:24;0.90;99.90
41876;DHT22;27555;50.808;4.402;2022-12-17T10:58:28;1.00;99.90
41876;DHT22;27555;50.808;4.402;2022-12-17T11:01:22;1.10;99.90
41876;DHT22;27555;50.808;4.402;2022-12-17T11:04:32;1.10;99.90
41876;DHT22;27555;50.808;4.402;2022-12-17T11:10:13;1.30;99.90
41876;DHT22;27555;50.808;4.402;2022-12-17T11:13:02;1.30;99.90
41876;DHT22;27555;50.808;4.402;2022-12-17T11:15:52;1.40;99.90
41876;DHT22;27555;50.808;4.402;2022-12-17T11:18:58;1.50;99.90
41876;DHT22;27555;50.808;4.402;2022-12-17T11:21:49;1.50;99.90
41876;DHT22;27555;50.808;4.402;2022-12-17T11:24:48;1.60;99.90
41876;DHT22;27555;50.808;4.402;2022-12-17T11:27:43;1.70;99.90
41876;DHT22;27555;50.808;4.402;2022-12-17T11:30:32;1.80;99.90
41876;DHT22;27555;50.808;4.402;2022-12-17T11:33:26;2.00;99.90
41876;DHT22;27555;50.808;4.402;2022-12-17T11:36:25;1.90;99.90
41876;DHT22;27555;50.808;4.402;2022-12-17T11:39:33;2.20;99.90
41876;DHT22;27555;50.808;4.402;2022-12-17T11:42:29;2.40;99.90
41876;DHT22;27555;50.808;4.402;2022-12-17T11:45:43;2.50;99.90
41876;DHT22;27555;50.808;4.402;2022-12-17T11:49:10;3.90;99.90
41876;DHT22;27555;50.808;4.402;2022-12-17T11:54:59;6.90;97.30
41876;DHT22;27555;50.808;4.402;2022-12-17T11:58:02;8.00;96.10
41876;DHT22;27555;50.808;4.402;2022-12-17T12:03:57;9.20;93.30
41876;DHT22;27555;50.808;4.402;2022-12-17T12:10:02;10.30;91.90
41876;DHT22;27555;50.808;4.402;2022-12-17T12:16:03;10.20;90.90
41876;DHT22;27555;50.808;4.402;2022-12-17T12:34:24;10.70;89.90
41876;DHT22;27555;50.808;4.402;2022-12-17T12:37:13;10.60;90.10
41876;DHT22;27555;50.808;4.402;2022-12-17T12:40:24;10.50;90.20
41876;DHT22;27555;50.808;4.402;2022-12-17T12:43:27;11.00;90.10
41876;DHT22;27555;50.808;4.402;2022-12-17T12:46:20;11.40;88.90
41876;DHT22;27555;50.808;4.402;2022-12-17T12:52:02;10.90;89.20
41876;DHT22;27555;50.808;4.402;2022-12-17T12:57:35;10.60;88.60
41876;DHT22;27555;50.808;4.402;2022-12-17T13:06:12;10.20;90.20
41876;DHT22;27555;50.808;4.402;2022-12-17T13:08:38;10.20;90.00
41876;DHT22;27555;50.808;4.402;2022-12-17T13:11:26;10.20;89.30
41876;DHT22;27555;50.808;4.402;2022-12-17T13:13:53;10.00;89.80
41876;DHT22;27555;50.808;4.402;2022-12-17T13:19:31;8.80;91.00
41876;DHT22;27555;50.808;4.402;2022-12-17T13:24:44;6.50;92.90
41876;DHT22;27555;50.808;4.402;2022-12-17T13:29:55;5.30;94.10
41876;DHT22;27555;50.808;4.402;2022-12-17T13:35:19;4.60;95.40
41876;DHT22;27555;50.808;4.402;2022-12-17T13:42:51;3.90;96.70
41876;DHT22;27555;50.808;4.402;2022-12-17T13:45:20;3.70;97.00
41876;DHT22;27555;50.808;4.402;2022-12-17T13:47:57;3.50;97.30
41876;DHT22;27555;50.808;4.402;2022-12-17T13:50:26;3.40;97.70
41876;DHT22;27555;50.808;4.402;2022-12-17T13:52:52;3.40;97.80
41876;DHT22;27555;50.808;4.402;2022-12-17T13:55:26;3.40;97.80
41876;DHT22;27555;50.808;4.402;2022-12-17T13:57:53;3.30;98.10
41876;DHT22;27555;50.808;4.402;2022-12-17T14:00:22;3.20;98.30
41876;DHT22;27555;50.808;4.402;2022-12-17T14:02:49;3.10;98.50
41876;DHT22;27555;50.808;4.402;2022-12-17T14:05:42;3.10;98.70
41876;DHT22;27555;50.808;4.402;2022-12-17T14:08:14;3.30;98.20
41876;DHT22;27555;50.808;4.402;2022-12-17T14:10:46;3.20;98.40
41876;DHT22;27555;50.808;4.402;2022-12-17T14:13:15;3.00;98.80
41876;DHT22;27555;50.808;4.402;2022-12-17T14:15:46;3.00;99.00
41876;DHT22;27555;50.808;4.402;2022-12-17T14:18:18;3.00;99.10
41876;DHT22;27555;50.808;4.402;2022-12-17T14:20:44;2.90;99.30
41876;DHT22;27555;50.808;4.402;2022-12-17T14:23:28;2.90;99.60
41876;DHT22;27555;50.808;4.402;2022-12-17T14:25:54;2.90;99.40
41876;DHT22;27555;50.808;4.402;2022-12-17T14:28:30;3.00;99.40
41876;DHT22;27555;50.808;4.402;2022-12-17T14:31:14;3.00;99.20
41876;DHT22;27555;50.808;4.402;2022-12-17T14:33:42;3.00;99.40
41876;DHT22;27555;50.808;4.402;2022-12-17T14:38:35;2.90;99.50
41876;DHT22;27555;50.808;4.402;2022-12-17T14:41:11;2.90;99.50
41876;DHT22;27555;50.808;4.402;2022-12-17T14:43:56;2.80;99.50
41876;DHT22;27555;50.808;4.402;2022-12-17T14:46:23;2.70;99.60
41876;DHT22;27555;50.808;4.402;2022-12-17T14:48:57;2.60;99.90
41876;DHT22;27555;50.808;4.402;2022-12-17T14:51:32;2.50;99.90
41876;DHT22;27555;50.808;4.402;2022-12-17T14:56:52;2.50;99.90
41876;DHT22;27555;50.808;4.402;2022-12-17T15:01:48;2.20;99.90
41876;DHT22;27555;50.808;4.402;2022-12-17T15:04:14;2.30;99.90
41876;DHT22;27555;50.808;4.402;2022-12-17T15:06:40;2.30;99.90
41876;DHT22;27555;50.808;4.402;2022-12-17T15:09:06;2.40;99.90
41876;DHT22;27555;50.808;4.402;2022-12-17T15:11:32;2.30;99.90
41876;DHT22;27555;50.808;4.402;2022-12-17T15:13:57;2.20;99.90
41876;DHT22;27555;50.808;4.402;2022-12-17T15:16:23;2.10;99.90
41876;DHT22;27555;50.808;4.402;2022-12-17T15:18:48;2.10;99.90
41876;DHT22;27555;50.808;4.402;2022-12-17T15:21:14;2.10;99.90
41876;DHT22;27555;50.808;4.402;2022-12-17T15:23:42;2.10;99.90
41876;DHT22;27555;50.808;4.402;2022-12-17T15:26:11;1.90;99.90
41876;DHT22;27555;50.808;4.402;2022-12-17T15:28:38;1.80;99.90
41876;DHT22;27555;50.808;4.402;2022-12-17T15:31:03;1.70;99.90
41876;DHT22;27555;50.808;4.402;2022-12-17T15:33:29;1.80;99.90
41876;DHT22;27555;50.808;4.402;2022-12-17T15:35:57;1.80;99.90
41876;DHT22;27555;50.808;4.402;2022-12-17T15:38:22;1.80;99.90
41876;DHT22;27555;50.808;4.402;2022-12-17T15:40:48;1.80;99.90
41876;DHT22;27555;50.808;4.402;2022-12-17T15:43:13;1.70;99.90
41876;DHT22;27555;50.808;4.402;2022-12-17T15:45:41;1.60;99.90
41876;DHT22;27555;50.808;4.402;2022-12-17T15:48:09;1.60;99.90
41876;DHT22;27555;50.808;4.402;2022-12-17T15:50:35;1.60;99.90
41876;DHT22;27555;50.808;4.402;2022-12-17T15:53:01;1.50;99.90
41876;DHT22;27555;50.808;4.402;2022-12-17T15:55:27;1.60;99.90
41876;DHT22;27555;50.808;4.402;2022-12-17T15:57:54;1.50;99.90
41876;DHT22;27555;50.808;4.402;2022-12-17T16:00:21;1.50;99.90
41876;DHT22;27555;50.808;4.402;2022-12-17T16:02:49;1.40;99.90
41876;DHT22;27555;50.808;4.402;2022-12-17T16:05:15;1.40;99.90
41876;DHT22;27555;50.808;4.402;2022-12-17T16:07:41;1.40;99.90
41876;DHT22;27555;50.808;4.402;2022-12-17T16:10:09;1.40;99.90
41876;DHT22;27555;50.808;4.402;2022-12-17T16:12:36;1.30;99.90
41876;DHT22;27555;50.808;4.402;2022-12-17T16:15:02;1.30;99.90
41876;DHT22;27555;50.808;4.402;2022-12-17T16:17:28;1.30;99.90
41876;DHT22;27555;50.808;4.402;2022-12-17T16:19:54;1.20;99.90
41876;DHT22;27555;50.808;4.402;2022-12-17T16:22:19;1.10;99.90
41876;DHT22;27555;50.808;4.402;2022-12-17T16:24:45;1.10;99.90
41876;DHT22;27555;50.808;4.402;2022-12-17T16:27:11;1.10;99.90
41876;DHT22;27555;50.808;4.402;2022-12-17T16:29:37;1.10;99.90
41876;DHT22;27555;50.808;4.402;2022-12-17T16:32:03;1.10;99.90
41876;DHT22;27555;50.808;4.402;2022-12-17T16:34:29;1.00;99.90
41876;DHT22;27555;50.808;4.402;2022-12-17T16:36:54;0.90;99.90
41876;DHT22;27555;50.808;4.402;2022-12-17T16:39:20;0.80;99.90
41876;DHT22;27555;50.808;4.402;2022-12-17T16:41:46;0.80;99.90
41876;DHT22;27555;50.808;4.402;2022-12-17T16:44:11;0.80;99.90
41876;DHT22;27555;50.808;4.402;2022-12-17T16:46:39;0.80;99.90
41876;DHT22;27555;50.808;4.402;2022-12-17T16:49:16;0.90;99.90
41876;DHT22;27555;50.808;4.402;2022-12-17T16:51:43;0.80;99.90
41876;DHT22;27555;50.808;4.402;2022-12-17T16:54:14;0.70;99.90
41876;DHT22;27555;50.808;4.402;2022-12-17T16:56:41;0.70;99.90
41876;DHT22;27555;50.808;4.402;2022-12-17T16:59:07;0.70;99.90
41876;DHT22;27555;50.808;4.402;2022-12-17T17:01:34;0.70;99.90
41876;DHT22;27555;50.808;4.402;2022-12-17T17:04:00;0.80;99.90
41876;DHT22;27555;50.808;4.402;2022-12-17T17:06:26;0.90;99.90
41876;DHT22;27555;50.808;4.402;2022-12-17T17:08:52;0.90;99.90
41876;DHT22;27555;50.808;4.402;2022-12-17T17:11:20;0.90;99.90
41876;DHT22;27555;50.808;4.402;2022-12-17T17:13:50;1.00;99.90
41876;DHT22;27555;50.808;4.402;2022-12-17T17:16:18;0.90;99.90
41876;DHT22;27555;50.808;4.402;2022-12-17T17:18:44;1.00;99.90
41876;DHT22;27555;50.808;4.402;2022-12-17T17:23:45;0.90;99.90
41876;DHT22;27555;50.808;4.402;2022-12-17T17:26:12;0.90;99.90
41876;DHT22;27555;50.808;4.402;2022-12-17T17:28:38;0.90;99.90
41876;DHT22;27555;50.808;4.402;2022-12-17T17:31:06;0.90;99.90
41876;DHT22;27555;50.808;4.402;2022-12-17T17:33:34;1.00;99.90
41876;DHT22;27555;50.808;4.402;2022-12-17T17:36:09;1.00;99.90
41876;DHT22;27555;50.808;4.402;2022-12-17T17:38:36;1.10;99.90
41876;DHT22;27555;50.808;4.402;2022-12-17T17:41:02;1.10;99.90
41876;DHT22;27555;50.808;4.402;2022-12-17T17:43:29;1.10;99.90
41876;DHT22;27555;50.808;4.402;2022-12-17T17:45:55;1.20;99.90
41876;DHT22;27555;50.808;4.402;2022-12-17T17:48:30;1.20;99.90
41876;DHT22;27555;50.808;4.402;2022-12-17T17:51:02;1.20;99.90
41876;DHT22;27555;50.808;4.402;2022-12-17T17:53:28;1.20;99.90
41876;DHT22;27555;50.808;4.402;2022-12-17T17:55:53;1.20;99.90
41876;DHT22;27555;50.808;4.402;2022-12-17T17:58:19;1.10;99.90
41876;DHT22;27555;50.808;4.402;2022-12-17T18:00:45;1.10;99.90
41876;DHT22;27555;50.808;4.402;2022-12-17T18:03:11;1.20;99.90
41876;DHT22;27555;50.808;4.402;2022-12-17T18:05:37;1.10;99.90
41876;DHT22;27555;50.808;4.402;2022-12-17T18:08:03;1.10;99.90
41876;DHT22;27555;50.808;4.402;2022-12-17T18:10:29;1.00;99.90
41876;DHT22;27555;50.808;4.402;2022-12-17T18:12:55;1.10;99.90
41876;DHT22;27555;50.808;4.402;2022-12-17T18:15:39;1.00;99.90
41876;DHT22;27555;50.808;4.402;2022-12-17T18:18:05;1.00;99.90
41876;DHT22;27555;50.808;4.402;2022-12-17T18:20:30;1.00;99.90
41876;DHT22;27555;50.808;4.402;2022-12-17T18:22:56;1.00;99.90
41876;DHT22;27555;50.808;4.402;2022-12-17T18:25:21;1.00;99.90
41876;DHT22;27555;50.808;4.402;2022-12-17T18:27:47;1.00;99.90